Latest Weather Observations for Redcliffe

IDQ60901

Issued at 7:11 am EST Sunday 22 October 2017 (issued every 10 minutes, with the page automatically refreshed every 10 minutes)

About weather observations | Map of Brisbane area stations | Latest observations for Brisbane area | Other Formats
Station Details ID: 040958 Name: REDCLIFFE Lat: -27.22 Lon: 153.09 Height: 12.6 m
Data from the previous 72 hours. | See also: Recent months at Redcliffe
Date/Time
EST
Temp
°C
App
Temp
°C
Dew
Point
°C
Rel
Hum
%
Delta-T
°C
Wind Press
QNH
hPa
Press
MSL
hPa
Rain since
9am
mm
Dir  Spd
km/h
Gust
km/h
Spd
kts
Gust
kts
22/07:00am 16.7 13.4 11.0 69 3.1 SSW 19 30 10 16 1013.5 1013.4 13.4
22/06:30am 15.4 12.3 11.6 78 2.0 SW 19 28 10 15 1013.1 1013.0 13.4
22/06:00am 14.0 11.1 11.0 82 1.6 SW 17 22 9 12 1012.9 1012.8 13.4
22/05:30am 13.5 10.5 10.7 83 1.5 SW 17 22 9 12 1012.7 1012.6 13.4
22/05:00am 13.5 10.6 10.9 84 1.4 SW 17 22 9 12 1012.6 1012.5 13.4
22/04:30am 13.4 10.9 10.9 85 1.3 SW 15 19 8 10 1012.6 1012.5 13.4
22/04:00am 13.4 11.3 11.3 87 1.1 SW 13 19 7 10 1012.4 1012.3 13.4
22/03:30am 13.6 11.3 11.7 88 1.0 SW 15 19 8 10 1012.3 1012.2 13.4
22/03:00am 13.7 11.4 11.9 89 1.0 SW 15 19 8 10 1012.4 1012.3 13.4
22/02:30am 13.4 11.1 11.6 89 1.0 WSW 15 19 8 10 1012.8 1012.7 13.4
22/02:00am 13.6 11.7 11.8 89 1.0 WSW 13 17 7 9 1013.0 1012.9 13.4
22/01:30am 13.7 11.8 11.9 89 1.0 WSW 13 15 7 8 1013.3 1013.2 13.4
22/01:00am 13.8 12.7 12.0 89 1.0 WSW 9 13 5 7 1013.6 1013.5 13.4
22/12:30am 14.0 13.0 12.2 89 1.0 WSW 9 11 5 6 1014.1 1014.0 13.4
22/12:00am 14.3 12.6 12.3 88 1.1 WSW 13 17 7 9 1014.3 1014.2 13.4
 
Date/Time
EST
Temp
°C
App
Temp
°C
Dew
Point
°C
Rel
Hum
%
Delta-T
°C
Wind Press
QNH
hPa
Press
MSL
hPa
Rain since
9am
mm
Dir  Spd
km/h
Gust
km/h
Spd
kts
Gust
kts
21/11:30pm 14.7 12.3 12.7 88 1.1 SW 17 24 9 13 1014.3 1014.2 13.4
21/11:00pm 14.9 13.3 12.9 88 1.1 WSW 13 19 7 10 1014.6 1014.5 13.4
21/10:30pm 15.1 14.1 13.3 89 1.0 SW 11 13 6 7 1014.7 1014.6 13.4
21/10:00pm 15.4 14.1 13.8 90 0.9 SW 13 17 7 9 1015.0 1014.9 13.4
21/09:30pm 15.4 14.1 13.8 90 0.9 WSW 13 19 7 10 1015.1 1015.0 13.4
21/09:00pm 15.5 14.3 13.9 90 0.9 SW 13 24 7 13 1015.2 1015.1 13.4
21/08:30pm 15.5 14.3 14.0 91 0.8 SW 13 19 7 10 1015.4 1015.3 13.4
21/08:00pm 16.0 15.0 14.7 92 0.7 SW 13 17 7 9 1015.4 1015.3 13.4
21/07:30pm 16.0 15.0 14.5 91 0.9 WSW 13 17 7 9 1015.2 1015.1 13.4
21/07:00pm 16.0 13.6 14.5 91 0.9 SSW 20 33 11 18 1015.1 1015.0 13.4
21/06:30pm 16.1 13.8 14.6 91 0.9 S 20 30 11 16 1015.1 1015.0 13.0
21/06:00pm 16.0 14.7 14.7 92 0.7 S 15 22 8 12 1014.0 1013.9 13.0
21/05:30pm 16.2 16.1 14.9 92 0.7 SW 9 17 5 9 1014.2 1014.1 12.8
21/05:00pm 16.2 15.3 14.9 92 0.7 SSW 13 17 7 9 1014.3 1014.2 11.8
21/04:30pm 16.4 14.8 15.1 92 0.8 SSW 17 26 9 14 1014.1 1014.0 11.0
21/04:00pm 16.5 15.0 15.2 92 0.8 SSW 17 22 9 12 1014.1 1014.0 10.6
21/03:30pm 16.8 15.4 15.5 92 0.8 SSW 17 24 9 13 1014.0 1013.9 10.2
21/03:00pm 16.8 14.8 15.5 92 0.8 SSW 20 28 11 15 1014.1 1014.0 9.2
21/02:30pm 17.0 13.0 15.3 90 1.0 S 30 39 16 21 1014.0 1013.9 7.6
21/02:00pm 17.5 13.2 15.5 88 1.2 SSE 32 35 17 19 1013.9 1013.8 4.6
21/01:30pm 17.7 12.9 15.5 87 1.3 SE 35 39 19 21 1014.2 1014.1 4.0
21/01:00pm 17.8 13.9 15.6 87 1.3 SSE 30 39 16 21 1014.5 1014.4 3.8
21/12:30pm 18.2 15.8 16.4 89 1.1 SSE 24 28 13 15 1014.8 1014.7 3.2
21/12:00pm 17.7 14.2 15.5 87 1.3 SE 28 33 15 18 1015.2 1015.1 3.0
21/11:30am 18.0 15.6 16.3 90 1.0 SSE 24 32 13 17 1015.5 1015.4 2.4
21/11:00am 18.0 13.0 16.0 88 1.2 SSE 37 48 20 26 1015.9 1015.8 1.6
21/10:53am 18.4 16.0 16.4 88 1.2 SSE 24 43 13 23 1015.9 1015.8 1.4
21/10:30am 18.6 18.4 16.6 88 1.2 S 13 15 7 8 1016.2 1016.1 1.2
21/10:00am 18.5 18.9 16.3 87 1.3 SSW 9 13 5 7 1016.4 1016.3 1.2
21/09:30am 18.6 18.7 16.4 87 1.3 SSW 11 15 6 8 1016.2 1016.1 0.8
21/09:00am 18.6 18.9 16.0 85 1.5 SSW 9 13 5 7 1016.0 1015.9 2.2
21/08:30am 19.2 19.6 16.4 84 1.7 S 9 11 5 6 1016.0 1015.9 1.0
21/08:00am 19.5 21.2 16.3 82 1.9 WNW 2 6 1 3 1015.8 1015.7 0.6
21/07:30am 19.6 20.1 15.5 77 2.4 SW 7 7 4 4 1015.8 1015.7 0.0
21/07:00am 19.6 19.8 14.8 74 2.8 W 7 9 4 5 1015.7 1015.6 0.0
21/06:30am 19.4 19.2 14.6 74 2.8 WNW 9 13 5 7 1015.7 1015.6 0.0
21/06:00am 18.8 18.2 14.7 77 2.4 W 11 15 6 8 1015.5 1015.4 0.0
21/05:30am 18.6 18.0 14.7 78 2.3 WNW 11 13 6 7 1015.4 1015.3 0.0
21/05:00am 18.6 18.9 14.9 79 2.2 NW 7 9 4 5 1015.0 1014.9 0.0
21/04:30am 18.4 18.7 14.9 80 2.0 NW 7 9 4 5 1014.6 1014.5 0.0
21/04:00am 18.1 17.8 14.4 79 2.1 W 9 11 5 6 1014.8 1014.7 0.0
21/03:30am 18.1 17.8 14.4 79 2.1 W 9 11 5 6 1015.0 1014.9 0.0
21/03:00am 18.0 17.7 14.3 79 2.1 W 9 13 5 7 1014.7 1014.6 0.0
21/02:30am 18.4 17.8 14.7 79 2.1 NW 11 15 6 8 1014.9 1014.8 0.0
21/02:00am 19.4 19.4 15.3 77 2.4 NNW 9 13 5 7 1014.9 1014.8 0.0
21/01:30am 18.9 18.7 15.8 82 1.8 NNW 11 15 6 8 1015.4 1015.3 0.0
21/01:00am 18.8 18.8 15.3 80 2.1 NW 9 13 5 7 1015.8 1015.7 0.0
21/12:30am 19.5 19.2 15.4 77 2.4 NW 11 17 6 9 1016.4 1016.3 0.0
21/12:00am 19.9 19.2 15.3 75 2.7 NNW 13 19 7 10 1016.6 1016.5 0.0
 
Date/Time
EST
Temp
°C
App
Temp
°C
Dew
Point
°C
Rel
Hum
%
Delta-T
°C
Wind Press
QNH
hPa
Press
MSL
hPa
Rain since
9am
mm
Dir  Spd
km/h
Gust
km/h
Spd
kts
Gust
kts
20/11:30pm 20.2 19.1 15.4 74 2.8 NNW 15 17 8 9 1016.9 1016.8 0.0
20/11:00pm 20.3 19.6 15.5 74 2.8 NNW 13 19 7 10 1017.1 1017.0 0.0
20/10:30pm 20.3 20.4 15.5 74 2.8 NNW 9 13 5 7 1017.4 1017.3 0.0
20/10:00pm 20.2 20.0 15.8 76 2.6 NNW 11 17 6 9 1017.6 1017.5 0.0
20/09:30pm 20.6 19.8 16.2 76 2.6 N 15 19 8 10 1017.7 1017.6 0.0
20/09:00pm 21.0 19.6 16.6 76 2.7 N 19 24 10 13 1017.9 1017.8 0.0
20/08:30pm 21.2 20.1 16.4 74 2.9 N 17 19 9 10 1017.8 1017.7 0.0
20/08:00pm 21.4 19.6 16.1 72 3.2 N 20 26 11 14 1017.7 1017.6 0.0
20/07:30pm 21.6 18.8 15.4 68 3.7 NNE 24 28 13 15 1017.7 1017.6 0.0
20/07:00pm 21.7 18.4 15.1 66 3.9 NNE 26 30 14 16 1017.6 1017.5 0.0
20/06:30pm 22.0 18.7 14.9 64 4.2 NNE 26 30 14 16 1017.6 1017.5 0.0
20/06:00pm 22.1 18.4 15.0 64 4.2 NNE 28 32 15 17 1017.4 1017.3 0.0
20/05:30pm 22.5 18.7 14.6 61 4.7 NNE 28 32 15 17 1017.3 1017.2 0.0
20/05:00pm 22.9 19.3 15.2 62 4.6 NNE 28 32 15 17 1017.3 1017.2 0.0
20/04:30pm 23.1 19.5 15.2 61 4.7 NE 28 32 15 17 1017.2 1017.1 0.0
20/04:00pm 23.4 20.2 15.2 60 4.9 NE 26 30 14 16 1017.3 1017.2 0.0
20/03:30pm 23.6 20.1 14.6 57 5.3 NE 26 30 14 16 1017.3 1017.2 0.0
20/03:00pm 23.7 19.7 14.1 55 5.6 NE 28 32 15 17 1017.5 1017.4 0.0
20/02:30pm 24.2 21.9 16.7 63 4.6 NE 24 30 13 16 1017.9 1017.8 0.0
20/02:00pm 23.5 21.1 15.3 60 4.9 ENE 22 26 12 14 1018.3 1018.2 0.0
20/01:30pm 23.8 21.4 16.3 63 4.6 ENE 24 26 13 14 1018.9 1018.8 0.0
20/01:00pm 24.5 22.5 16.5 61 4.9 ENE 22 26 12 14 1019.2 1019.1 0.0
20/12:30pm 24.1 21.7 15.3 58 5.3 ENE 22 26 12 14 1019.6 1019.5 0.0
20/12:00pm 24.3 22.1 15.0 56 5.5 NE 20 26 11 14 1019.9 1019.8 0.0
20/11:30am 24.8 23.3 14.3 52 6.2 NE 15 19 8 10 1020.5 1020.4 0.0
20/11:00am 24.0 22.7 14.7 56 5.5 NE 15 19 8 10 1020.9 1020.8 0.0
20/10:30am 24.3 24.1 16.6 62 4.7 ENE 13 15 7 8 1021.3 1021.2 0.0
20/10:00am 23.5 23.7 15.8 62 4.6 E 9 11 5 6 1021.5 1021.4 0.0
20/09:30am 22.8 22.7 15.9 65 4.2 E 11 13 6 7 1021.6 1021.5 0.0
20/09:00am 22.9 22.7 15.7 64 4.3 E 11 13 6 7 1021.8 1021.7 0.2
20/08:30am 23.3 22.9 16.1 64 4.4 E 13 15 7 8 1021.9 1021.8 0.2
20/08:00am 22.6 21.9 16.4 68 3.8 E 15 19 8 10 1021.8 1021.7 0.2
20/07:30am 22.1 21.2 15.9 68 3.7 E 15 17 8 9 1021.8 1021.7 0.2
20/07:00am 21.7 20.5 16.2 71 3.3 E 17 19 9 10 1021.8 1021.7 0.2
20/06:30am 21.7 21.2 16.0 70 3.4 E 13 15 7 8 1021.8 1021.7 0.2
20/06:00am 20.9 19.8 15.4 71 3.3 E 15 17 8 9 1021.7 1021.6 0.2
20/05:30am 20.4 19.3 15.2 72 3.1 E 15 17 8 9 1021.4 1021.3 0.2
20/05:00am 20.1 18.7 15.5 75 2.7 E 17 20 9 11 1021.2 1021.1 0.2
20/04:30am 20.0 18.2 15.6 76 2.6 ENE 19 20 10 11 1021.1 1021.0 0.2
20/04:00am 20.1 19.1 15.7 76 2.6 ENE 15 17 8 9 1020.8 1020.7 0.2
20/03:30am 20.4 18.4 15.6 74 2.9 ENE 20 24 11 13 1020.9 1020.8 0.2
20/03:00am 20.4 18.4 15.4 73 3.0 ENE 20 24 11 13 1021.0 1020.9 0.2
20/02:30am 20.7 18.0 15.7 73 3.0 E 24 28 13 15 1021.1 1021.0 0.2
20/02:00am 20.7 18.0 15.5 72 3.1 ENE 24 26 13 14 1021.5 1021.4 0.2
20/01:30am 20.7 18.9 15.9 74 2.9 ENE 20 24 11 13 1021.9 1021.8 0.2
20/01:00am 20.7 19.3 15.5 72 3.1 ENE 17 20 9 11 1022.3 1022.2 0.2
20/12:30am 20.7 18.7 15.0 70 3.4 ENE 19 22 10 12 1022.8 1022.7 0.2
20/12:00am 20.8 18.7 14.7 68 3.6 NE 19 22 10 12 1023.2 1023.1 0.2
 
Date/Time
EST
Temp
°C
App
Temp
°C
Dew
Point
°C
Rel
Hum
%
Delta-T
°C
Wind Press
QNH
hPa
Press
MSL
hPa
Rain since
9am
mm
Dir  Spd
km/h
Gust
km/h
Spd
kts
Gust
kts
19/11:30pm 21.2 19.3 15.3 69 3.5 ENE 19 22 10 12 1023.6 1023.5 0.2
19/11:00pm 21.3 19.3 15.4 69 3.5 ENE 20 24 11 13 1024.1 1024.0 0.2
19/10:30pm 21.4 18.8 15.9 71 3.3 E 24 28 13 15 1024.4 1024.3 0.2
19/10:00pm 21.1 19.0 16.3 74 2.9 ENE 22 28 12 15 1024.6 1024.5 0.2
19/09:30pm 21.0 19.7 15.8 72 3.1 ENE 17 24 9 13 1024.7 1024.6 0.2
19/09:00pm 21.5 18.9 15.8 70 3.4 E 24 30 13 16 1024.7 1024.6 0.2
19/08:30pm 21.2 19.1 14.6 66 3.9 ENE 19 24 10 13 1024.6 1024.5 0.2
19/08:00pm 21.4 18.6 15.3 68 3.6 E 24 28 13 15 1024.4 1024.3 0.2
19/07:30pm 21.2 18.3 16.0 72 3.1 E 26 30 14 16 1024.5 1024.4 0.2
19/07:00pm 21.0 18.1 16.0 73 3.0 E 26 30 14 16 1024.3 1024.2 0.2
19/06:30pm 21.6 18.4 15.2 67 3.8 E 26 32 14 17 1024.0 1023.9 0.2
19/06:00pm 21.7 19.0 15.5 68 3.7 E 24 28 13 15 1023.8 1023.7 0.2
19/05:30pm 21.7 18.4 15.1 66 3.9 E 26 30 14 16 1023.6 1023.5 0.2
19/05:00pm 22.1 19.0 15.5 66 3.9 E 26 30 14 16 1023.3 1023.2 0.2
19/04:30pm 22.3 19.1 15.2 64 4.2 E 26 30 14 16 1023.0 1022.9 0.2
19/04:00pm 22.3 19.5 15.4 65 4.1 E 24 30 13 16 1023.1 1023.0 0.2
19/03:30pm 22.1 20.8 15.7 67 3.8 E 17 20 9 11 1023.2 1023.1 0.2
19/03:00pm 22.0 20.3 15.8 68 3.7 E 19 22 10 12 1023.3 1023.2 0.2
19/02:30pm 22.0 17.2 15.6 67 3.8 E 35 39 19 21 1023.6 1023.5 0.2
19/02:00pm 23.0 20.4 16.8 68 3.8 ESE 26 32 14 17 1023.7 1023.6 0.2
19/01:30pm 22.9 19.7 16.2 66 4.1 ESE 28 32 15 17 1024.1 1024.0 0.2
19/01:00pm 23.2 20.1 16.5 66 4.1 ESE 28 33 15 18 1024.4 1024.3 0.2
19/12:30pm 23.1 19.9 15.2 61 4.7 ESE 26 30 14 16 1024.5 1024.4 0.2
19/12:00pm 22.9 19.1 15.7 64 4.3 E 30 35 16 19 1024.7 1024.6 0.2
19/11:30am 23.4 20.2 16.4 64 4.3 ESE 28 32 15 17 1025.0 1024.9 0.2
19/11:00am 22.8 19.1 16.1 66 4.0 ESE 30 35 16 19 1025.2 1025.1 0.2
19/10:30am 22.0 18.0 16.3 70 3.5 ESE 32 37 17 20 1025.3 1025.2 0.0
19/10:00am 23.0 19.2 15.8 64 4.3 E 30 35 16 19 1025.5 1025.4 0.0
19/09:30am 22.3 20.5 17.0 72 3.2 ESE 22 28 12 15 1025.7 1025.6 0.0
19/09:00am 21.1 18.3 16.3 74 2.9 ESE 26 35 14 19 1026.1 1026.0 1.6
19/08:30am 19.9 14.6 15.3 75 2.7 ESE 37 48 20 26 1026.1 1026.0 1.6
19/08:00am 21.7 17.4 15.5 68 3.7 E 32 35 17 19 1025.9 1025.8 1.6
19/07:30am 22.1 17.8 16.8 72 3.2 E 35 43 19 23 1025.6 1025.5 1.6

Latest Capital City Observations: Canberra | Sydney | Melbourne | Brisbane | Adelaide | Perth | Hobart | Darwin

Other Formats:

Comma delimited format used in spreadsheet applications
http://www.bom.gov.au/fwo/IDQ60901/IDQ60901.95591.axf

JavaScript Object Notation format (JSON) in row-major order
http://www.bom.gov.au/fwo/IDQ60901/IDQ60901.95591.json